createdAt,value
2022-10-16T16:20:11.882Z,34.83
2022-10-16T16:22:39.004Z,33.97
2022-10-16T16:25:06.196Z,34.72
2022-10-16T16:27:35.706Z,34.08
2022-10-16T16:30:04.587Z,37.25
2022-10-16T16:32:31.776Z,37.15
2022-10-16T16:34:58.640Z,35.47
2022-10-16T16:37:25.721Z,34.50
2022-10-16T16:39:52.811Z,35.40
2022-10-16T16:42:19.558Z,37.85
2022-10-16T16:44:48.258Z,36.85
2022-10-16T16:47:15.030Z,36.30
2022-10-16T16:49:41.947Z,38.03
2022-10-16T16:52:10.924Z,40.92
2022-10-16T16:54:40.585Z,40.65
2022-10-16T16:57:07.907Z,39.28
2022-10-16T16:59:34.809Z,41.60
2022-10-16T17:02:04.596Z,45.45
2022-10-16T17:04:31.565Z,50.35
2022-10-16T17:06:58.484Z,49.42
2022-10-16T17:09:28.304Z,49.10
2022-10-16T17:11:55.422Z,46.45
2022-10-16T17:14:22.378Z,48.45
2022-10-16T17:16:49.913Z,43.47
2022-10-16T17:19:19.084Z,45.33
2022-10-16T17:21:46.393Z,45.28
2022-10-16T17:24:13.201Z,40.75
2022-10-16T17:26:41.605Z,46.00
2022-10-16T17:29:10.382Z,43.60
2022-10-16T17:31:37.675Z,42.65
2022-10-16T17:34:07.664Z,46.58
2022-10-16T17:36:37.090Z,42.72
2022-10-16T17:39:07.990Z,43.78
2022-10-16T17:41:36.652Z,46.08
2022-10-16T17:44:06.857Z,43.13
2022-10-16T17:46:38.288Z,42.20
2022-10-16T17:49:09.849Z,40.38
2022-10-16T17:51:36.823Z,41.63
2022-10-16T17:54:03.961Z,40.95
2022-10-16T17:56:31.095Z,44.03
2022-10-16T17:59:00.867Z,42.63
2022-10-16T18:01:44.313Z,43.45
2022-10-16T18:04:15.388Z,43.28
2022-10-16T18:06:44.445Z,43.90
2022-10-16T18:09:14.446Z,45.92
2022-10-16T18:11:41.262Z,46.08
2022-10-16T18:14:08.221Z,48.53
2022-10-16T18:16:36.674Z,45.72
2022-10-16T18:19:03.926Z,42.78
2022-10-16T18:21:31.635Z,43.83
2022-10-16T18:23:59.887Z,45.72
2022-10-16T18:26:27.194Z,48.10
2022-10-16T18:28:56.195Z,47.55
2022-10-16T18:31:23.896Z,48.95
2022-10-16T18:33:51.382Z,48.58
2022-10-16T18:36:39.683Z,50.13
2022-10-16T18:39:09.561Z,46.08
2022-10-16T18:41:38.544Z,48.53
2022-10-16T18:44:06.657Z,46.17
2022-10-16T18:46:33.931Z,44.90
2022-10-16T18:49:01.791Z,44.22
2022-10-16T18:51:31.685Z,49.28
2022-10-16T18:54:01.649Z,49.38
2022-10-16T18:56:30.465Z,48.70
2022-10-16T18:58:59.944Z,50.85
2022-10-16T19:01:28.933Z,48.13
2022-10-16T19:03:57.252Z,48.67
2022-10-16T19:06:25.649Z,50.78
2022-10-16T19:08:54.445Z,51.85
2022-10-16T19:11:23.124Z,51.75
2022-10-16T19:13:50.407Z,50.65
2022-10-16T19:16:20.685Z,50.70
2022-10-16T19:18:52.613Z,49.17
2022-10-16T19:21:20.089Z,48.80
2022-10-16T19:23:47.215Z,49.42
2022-10-16T19:26:18.748Z,54.25
2022-10-16T19:28:46.162Z,55.28
2022-10-16T19:31:19.211Z,50.88
2022-10-16T19:33:47.821Z,51.55
2022-10-16T19:36:19.937Z,53.17
2022-10-16T19:38:47.249Z,56.15
2022-10-16T19:41:18.790Z,52.38
2022-10-16T19:43:47.524Z,55.47
2022-10-16T19:46:26.012Z,54.67
2022-10-16T19:48:59.515Z,48.08
2022-10-16T19:51:28.304Z,50.50
2022-10-16T19:54:01.202Z,46.88
2022-10-16T19:56:30.271Z,53.05
2022-10-16T19:58:58.451Z,54.38
2022-10-16T20:01:28.193Z,53.25
2022-10-16T20:03:58.684Z,54.33
2022-10-16T20:06:28.720Z,55.60
2022-10-16T20:08:57.563Z,55.45
2022-10-16T20:11:29.539Z,53.97
2022-10-16T20:13:56.776Z,58.30
2022-10-16T20:16:24.757Z,56.70
2022-10-16T20:18:52.492Z,57.33
2022-10-16T20:21:31.130Z,57.55
2022-10-16T20:24:00.123Z,54.13
2022-10-16T20:26:29.076Z,54.08
2022-10-16T20:28:56.321Z,58.83
2022-10-16T20:31:26.861Z,58.17
2022-10-16T20:33:55.771Z,55.42
2022-10-16T20:36:25.808Z,59.33
2022-10-16T20:38:53.171Z,59.90
2022-10-16T20:41:20.238Z,58.45
2022-10-16T20:43:49.353Z,58.60
2022-10-16T20:46:19.573Z,60.05
2022-10-16T20:48:47.158Z,57.70
